createdAt,value
2019-01-16T00:00:35.443Z,8.07
2019-01-16T00:03:08.407Z,12.90
2019-01-16T00:05:41.521Z,9.80
2019-01-16T00:08:28.297Z,8.10
2019-01-16T00:11:16.195Z,8.97
2019-01-16T00:14:01.410Z,6.70
2019-01-16T00:16:34.671Z,8.43
2019-01-16T00:19:13.785Z,9.37
2019-01-16T00:21:53.067Z,10.20
2019-01-16T00:24:41.339Z,8.30
2019-01-16T00:27:20.210Z,6.23
2019-01-16T00:29:53.280Z,9.77
2019-01-16T00:32:35.706Z,6.27
2019-01-16T00:35:07.767Z,8.17
2019-01-16T00:37:52.874Z,9.47
2019-01-16T00:40:39.313Z,5.83
2019-01-16T00:43:15.163Z,6.10
2019-01-16T00:45:47.962Z,6.40
2019-01-16T00:48:24.627Z,10.13
2019-01-16T00:51:07.917Z,12.93
2019-01-16T00:53:46.722Z,7.53
2019-01-16T00:56:22.309Z,7.43
2019-01-16T00:58:55.375Z,8.13
2019-01-16T01:01:42.119Z,7.73
2019-01-16T01:04:28.595Z,6.17
2019-01-16T01:07:04.860Z,11.03
2019-01-16T01:09:49.876Z,6.97
2019-01-16T01:12:22.708Z,5.17
2019-01-16T01:14:56.544Z,5.90
2019-01-16T01:17:29.799Z,6.17
2019-01-16T01:20:16.281Z,10.00
2019-01-16T01:22:46.388Z,5.80
2019-01-16T01:25:19.450Z,5.17
2019-01-16T01:27:52.463Z,7.00
2019-01-16T01:30:38.885Z,7.70
2019-01-16T01:33:08.993Z,5.83
2019-01-16T01:35:39.122Z,6.53
2019-01-16T01:38:25.099Z,7.10
2019-01-16T01:40:55.190Z,7.17
2019-01-16T01:43:25.290Z,5.63
2019-01-16T01:46:04.207Z,6.93
2019-01-16T01:48:39.933Z,6.57
2019-01-16T01:51:12.129Z,5.77
2019-01-16T01:53:44.944Z,6.80
2019-01-16T01:56:31.447Z,7.50
2019-01-16T01:59:10.447Z,6.67
2019-01-16T02:01:43.486Z,5.37
2019-01-16T02:04:25.635Z,7.63
2019-01-16T02:06:55.761Z,11.00
2019-01-16T02:09:42.056Z,7.30
2019-01-16T02:12:17.679Z,10.83
2019-01-16T02:15:04.139Z,6.10
2019-01-16T02:17:40.359Z,8.90
2019-01-16T02:20:29.130Z,9.40
2019-01-16T02:23:14.366Z,11.30
2019-01-16T02:26:00.878Z,7.20
2019-01-16T02:28:39.885Z,9.57
2019-01-16T02:31:12.897Z,6.17
2019-01-16T02:33:58.171Z,9.10
2019-01-16T02:36:28.270Z,9.97
2019-01-16T02:39:10.440Z,7.67
2019-01-16T02:41:52.755Z,8.30
2019-01-16T02:44:22.852Z,11.23
2019-01-16T02:47:09.213Z,13.40
2019-01-16T02:49:42.001Z,11.93
2019-01-16T02:52:14.554Z,9.40
2019-01-16T02:54:44.658Z,9.43
2019-01-16T02:57:33.208Z,9.17
2019-01-16T03:00:06.439Z,8.70
2019-01-16T03:02:39.357Z,9.77
2019-01-16T03:05:09.449Z,11.90
2019-01-16T03:07:39.578Z,11.13
2019-01-16T03:10:13.356Z,7.23
2019-01-16T03:12:58.681Z,10.50
2019-01-16T03:15:28.780Z,11.00
2019-01-16T03:17:58.893Z,7.87
2019-01-16T03:20:44.099Z,9.93
2019-01-16T03:23:16.885Z,9.27
2019-01-16T03:26:05.173Z,9.53
2019-01-16T03:28:35.294Z,13.67
2019-01-16T03:31:21.781Z,13.53
2019-01-16T03:34:04.033Z,11.67
2019-01-16T03:36:36.761Z,10.47
2019-01-16T03:39:18.588Z,10.40
2019-01-16T03:41:57.606Z,11.03
2019-01-16T03:44:30.291Z,16.43
2019-01-16T03:47:18.707Z,12.93
2019-01-16T03:49:51.573Z,18.83
2019-01-16T03:52:21.694Z,12.23
2019-01-16T03:54:54.372Z,14.03
2019-01-16T03:57:30.016Z,15.27
2019-01-16T04:00:08.979Z,17.47
2019-01-16T04:02:51.332Z,14.73
2019-01-16T04:05:21.479Z,17.97
2019-01-16T04:07:51.569Z,16.30
2019-01-16T04:10:28.019Z,20.73
2019-01-16T04:13:07.463Z,14.10
2019-01-16T04:15:37.583Z,22.43
2019-01-16T04:18:10.331Z,15.97
2019-01-16T04:20:45.919Z,18.73
2019-01-16T04:23:21.518Z,15.50
2019-01-16T04:25:51.648Z,17.00
2019-01-16T04:28:30.717Z,19.57
2019-01-16T04:31:00.844Z,16.03
2019-01-16T04:33:33.924Z,22.20
2019-01-16T04:36:20.108Z,18.80
2019-01-16T04:38:50.215Z,17.43
2019-01-16T04:41:23.111Z,18.23
2019-01-16T04:43:55.922Z,18.77
2019-01-16T04:46:28.491Z,28.87
2019-01-16T04:48:58.600Z,19.00
2019-01-16T04:51:28.725Z,22.30
2019-01-16T04:54:10.702Z,25.73
2019-01-16T04:56:59.007Z,13.77
2019-01-16T04:59:29.115Z,17.63
2019-01-16T05:02:15.549Z,17.93
2019-01-16T05:04:48.792Z,17.63
2019-01-16T05:07:21.579Z,16.83
2019-01-16T05:10:00.859Z,16.73
2019-01-16T05:12:33.444Z,18.30
2019-01-16T05:15:06.338Z,16.13
2019-01-16T05:17:36.480Z,19.07
2019-01-16T05:20:18.830Z,18.63
2019-01-16T05:23:01.069Z,17.20
2019-01-16T05:25:49.480Z,15.00
2019-01-16T05:28:22.544Z,12.37
2019-01-16T05:31:11.021Z,13.60
2019-01-16T05:33:41.113Z,12.03
2019-01-16T05:36:26.621Z,16.17
2019-01-16T05:39:02.485Z,14.90
2019-01-16T05:41:35.577Z,18.97
2019-01-16T05:44:15.217Z,11.57
2019-01-16T05:46:48.057Z,10.13
2019-01-16T05:49:18.238Z,10.10
2019-01-16T05:51:51.102Z,12.83
2019-01-16T05:54:29.976Z,13.23
2019-01-16T05:57:09.001Z,11.83
2019-01-16T05:59:41.550Z,16.83
2019-01-16T06:02:17.384Z,13.50
2019-01-16T06:04:59.747Z,18.40
2019-01-16T06:07:46.021Z,16.53
2019-01-16T06:10:24.653Z,11.17
2019-01-16T06:12:54.782Z,14.20
2019-01-16T06:15:41.372Z,11.67
2019-01-16T06:18:11.492Z,12.30
2019-01-16T06:20:44.275Z,13.57
2019-01-16T06:23:30.825Z,13.07
2019-01-16T06:26:03.473Z,12.87
2019-01-16T06:28:39.737Z,13.93
2019-01-16T06:31:15.675Z,16.97
2019-01-16T06:33:55.012Z,13.33
2019-01-16T06:36:41.721Z,10.93
2019-01-16T06:39:14.790Z,13.47
2019-01-16T06:41:50.901Z,13.10
2019-01-16T06:44:21.030Z,18.60
2019-01-16T06:46:51.129Z,11.70
2019-01-16T06:49:21.252Z,13.97
2019-01-16T06:51:51.353Z,19.33
2019-01-16T06:54:21.474Z,14.00
2019-01-16T06:57:03.506Z,13.90
2019-01-16T06:59:36.046Z,14.00
2019-01-16T07:02:09.374Z,16.00
2019-01-16T07:04:39.498Z,13.23
2019-01-16T07:07:09.601Z,15.50
2019-01-16T07:09:56.159Z,14.57
2019-01-16T07:12:42.873Z,18.07
2019-01-16T07:15:30.392Z,18.17
2019-01-16T07:18:03.185Z,14.57
2019-01-16T07:20:49.227Z,15.60
2019-01-16T07:23:31.395Z,13.33
2019-01-16T07:26:07.491Z,19.40
2019-01-16T07:28:43.339Z,17.87
2019-01-16T07:31:22.270Z,12.40
2019-01-16T07:33:58.371Z,13.67
2019-01-16T07:36:44.680Z,13.87
2019-01-16T07:39:31.225Z,19.33
2019-01-16T07:42:19.449Z,14.43
2019-01-16T07:44:52.544Z,13.70
2019-01-16T07:47:34.925Z,11.23
2019-01-16T07:50:17.220Z,14.17
2019-01-16T07:53:00.763Z,12.40
2019-01-16T07:55:36.570Z,15.63
2019-01-16T07:58:21.448Z,11.27
2019-01-16T08:00:54.293Z,10.43
2019-01-16T08:03:24.389Z,12.33
2019-01-16T08:05:59.952Z,11.57
2019-01-16T08:08:30.065Z,11.43
2019-01-16T08:11:16.716Z,15.07
2019-01-16T08:13:52.550Z,11.73
2019-01-16T08:16:38.779Z,11.20
2019-01-16T08:19:14.869Z,12.00
2019-01-16T08:21:44.990Z,10.60
2019-01-16T08:24:27.402Z,9.23
2019-01-16T08:26:57.528Z,21.83
2019-01-16T08:29:27.637Z,10.37
2019-01-16T08:31:57.758Z,10.50
2019-01-16T08:34:27.863Z,10.83
2019-01-16T08:36:57.988Z,14.90
2019-01-16T08:39:40.134Z,10.33
2019-01-16T08:42:19.189Z,7.57
2019-01-16T08:44:52.492Z,9.60
2019-01-16T08:47:22.609Z,9.10
2019-01-16T08:50:07.992Z,9.30
2019-01-16T08:52:38.125Z,10.67
2019-01-16T08:55:08.778Z,7.47
2019-01-16T08:57:50.879Z,8.23
2019-01-16T09:00:32.724Z,9.03
2019-01-16T09:03:05.770Z,8.13
2019-01-16T09:05:44.895Z,9.80
2019-01-16T09:08:21.005Z,13.40
2019-01-16T09:10:51.103Z,10.00
2019-01-16T09:13:21.252Z,7.93
2019-01-16T09:15:51.351Z,11.67
2019-01-16T09:18:27.166Z,12.87
2019-01-16T09:20:57.257Z,9.73
2019-01-16T09:23:33.207Z,8.23
2019-01-16T09:26:06.103Z,7.60
2019-01-16T09:28:52.283Z,7.90
2019-01-16T09:31:22.374Z,9.13
2019-01-16T09:34:08.405Z,8.97
2019-01-16T09:36:54.806Z,9.87
2019-01-16T09:39:30.610Z,6.60
2019-01-16T09:42:03.649Z,7.77
2019-01-16T09:44:36.462Z,6.60
2019-01-16T09:47:12.147Z,10.93
2019-01-16T09:49:42.269Z,6.07
2019-01-16T09:52:12.374Z,7.80
2019-01-16T09:54:51.556Z,7.77
2019-01-16T09:57:30.635Z,6.67
2019-01-16T10:00:16.064Z,6.87
2019-01-16T10:02:48.569Z,6.23
2019-01-16T10:05:18.689Z,6.10
2019-01-16T10:07:48.785Z,6.20
2019-01-16T10:10:36.962Z,6.33
2019-01-16T10:13:12.860Z,6.63
2019-01-16T10:15:45.583Z,8.40
2019-01-16T10:18:15.648Z,5.53
2019-01-16T10:21:01.957Z,7.57
2019-01-16T10:23:50.522Z,13.10
2019-01-16T10:26:21.582Z,5.20
2019-01-16T10:28:57.239Z,7.07
2019-01-16T10:31:29.747Z,7.70
2019-01-16T10:34:05.591Z,7.33
2019-01-16T10:36:48.066Z,6.57
2019-01-16T10:39:34.651Z,10.23
2019-01-16T10:42:20.946Z,7.17
2019-01-16T10:44:51.067Z,6.33
2019-01-16T10:47:21.169Z,6.90
2019-01-16T10:52:38.323Z,6.60
2019-01-16T10:55:08.683Z,7.97
2019-01-16T10:57:53.775Z,6.67
2019-01-16T11:00:23.896Z,5.33
2019-01-16T11:02:59.678Z,6.83
2019-01-16T11:05:32.628Z,5.03
2019-01-16T11:08:11.489Z,5.57
2019-01-16T11:10:57.477Z,8.20
2019-01-16T11:13:45.578Z,8.30
2019-01-16T11:16:24.344Z,5.23
2019-01-16T11:18:57.216Z,5.17
2019-01-16T11:21:30.368Z,5.77
2019-01-16T11:24:02.899Z,6.47
2019-01-16T11:26:44.876Z,4.90
2019-01-16T11:29:30.309Z,7.17
2019-01-16T11:32:16.781Z,4.97
2019-01-16T11:34:46.875Z,3.43
2019-01-16T11:37:33.255Z,4.43
2019-01-16T11:40:06.436Z,5.10
2019-01-16T11:42:39.070Z,5.93
2019-01-16T11:45:24.619Z,8.87
2019-01-16T11:48:11.130Z,5.00
2019-01-16T11:50:43.992Z,6.40
2019-01-16T11:53:26.390Z,5.73
2019-01-16T11:56:11.663Z,4.90
2019-01-16T11:58:41.762Z,6.67
2019-01-16T12:01:14.521Z,3.50
2019-01-16T12:04:02.970Z,5.33
2019-01-16T12:06:38.820Z,5.83
2019-01-16T12:09:27.178Z,5.87
2019-01-16T12:12:09.262Z,3.70
2019-01-16T12:14:42.078Z,4.23
2019-01-16T12:17:29.755Z,3.43
2019-01-16T12:20:02.410Z,3.67
2019-01-16T12:22:32.524Z,4.37
2019-01-16T12:25:08.732Z,3.00
2019-01-16T12:27:53.895Z,4.17
2019-01-16T12:30:30.675Z,3.37
2019-01-16T12:33:06.221Z,3.77
2019-01-16T12:35:39.259Z,3.33
2019-01-16T12:38:21.051Z,5.73
2019-01-16T12:40:57.135Z,9.83
2019-01-16T12:43:33.384Z,2.63
2019-01-16T12:46:09.154Z,2.77
2019-01-16T12:48:44.950Z,3.90
2019-01-16T12:54:32.948Z,4.87
2019-01-16T12:57:03.049Z,4.30
2019-01-16T12:59:33.203Z,3.50
2019-01-16T13:02:12.638Z,2.93
2019-01-16T13:04:54.699Z,3.73
2019-01-16T13:07:40.019Z,2.47
2019-01-16T13:10:15.245Z,3.17
2019-01-16T13:12:45.338Z,2.83
2019-01-16T13:15:21.339Z,2.67
2019-01-16T13:17:53.994Z,3.00
2019-01-16T13:20:24.120Z,2.90
2019-01-16T13:22:59.923Z,2.07
2019-01-16T13:25:48.253Z,3.87
2019-01-16T13:28:18.365Z,2.90
2019-01-16T13:30:50.995Z,2.07
2019-01-16T13:33:39.259Z,4.23
2019-01-16T13:36:25.305Z,2.97
2019-01-16T13:38:55.421Z,3.13
2019-01-16T13:41:31.480Z,4.77
2019-01-16T13:44:04.503Z,2.43
2019-01-16T13:46:40.679Z,4.27
2019-01-16T13:49:13.348Z,3.17
2019-01-16T13:51:52.264Z,2.10
2019-01-16T13:54:28.639Z,5.30
2019-01-16T13:57:15.073Z,5.43
2019-01-16T14:02:53.083Z,3.20
2019-01-16T14:05:29.115Z,2.13
2019-01-16T14:08:15.619Z,2.70
2019-01-16T14:10:45.744Z,5.47
2019-01-16T14:13:24.589Z,3.30
2019-01-16T14:16:06.444Z,3.67
2019-01-16T14:18:42.444Z,3.27
2019-01-16T14:21:21.656Z,2.60
2019-01-16T14:23:58.031Z,3.17
2019-01-16T14:26:43.504Z,8.33
2019-01-16T14:29:25.645Z,2.13
2019-01-16T14:32:01.780Z,1.73
2019-01-16T14:34:34.465Z,1.63
2019-01-16T14:37:20.989Z,5.43
2019-01-16T14:39:54.028Z,3.03
2019-01-16T14:42:36.211Z,3.80
2019-01-16T14:45:24.533Z,3.93
2019-01-16T14:47:57.278Z,3.63
2019-01-16T14:50:43.716Z,2.93
2019-01-16T14:53:13.815Z,5.73
2019-01-16T14:55:43.933Z,2.43
2019-01-16T14:58:14.029Z,2.67
2019-01-16T15:00:46.965Z,4.13
2019-01-16T15:03:35.438Z,4.20
2019-01-16T15:06:08.800Z,3.98
2019-01-16T15:08:51.142Z,4.08
2019-01-16T15:11:30.030Z,7.23
2019-01-16T15:14:02.850Z,3.97
2019-01-16T15:16:41.738Z,3.77
2019-01-16T15:19:28.218Z,2.50
2019-01-16T15:22:14.753Z,2.97
2019-01-16T15:24:51.078Z,4.13
2019-01-16T15:27:26.850Z,5.87
2019-01-16T15:29:59.635Z,3.47
2019-01-16T15:35:20.781Z,8.63
2019-01-16T15:37:59.712Z,2.33
2019-01-16T15:40:29.904Z,4.20
2019-01-16T15:43:00.017Z,4.20
2019-01-16T15:45:32.815Z,3.53
2019-01-16T15:48:15.102Z,3.00
2019-01-16T15:50:47.877Z,6.37
2019-01-16T15:53:20.483Z,4.37
2019-01-16T15:56:02.461Z,3.27
2019-01-16T15:58:32.598Z,6.63
2019-01-16T16:01:02.726Z,4.30
2019-01-16T16:03:41.673Z,4.37
2019-01-16T16:06:11.785Z,5.17
2019-01-16T16:08:53.765Z,5.20
2019-01-16T16:11:23.863Z,4.03
2019-01-16T16:14:05.764Z,3.63
2019-01-16T16:16:52.413Z,5.73
2019-01-16T16:19:34.371Z,3.50
2019-01-16T16:22:19.495Z,3.50
2019-01-16T16:24:58.640Z,5.17
2019-01-16T16:27:34.497Z,5.90
2019-01-16T16:30:07.666Z,5.27
2019-01-16T16:32:40.227Z,6.40
2019-01-16T16:35:19.092Z,3.47
2019-01-16T16:38:07.196Z,4.03
2019-01-16T16:40:39.982Z,4.13
2019-01-16T16:43:19.325Z,4.70
2019-01-16T16:45:55.237Z,5.57
2019-01-16T16:48:34.198Z,8.43
2019-01-16T16:51:13.019Z,5.07
2019-01-16T16:53:45.800Z,4.40
2019-01-16T16:56:32.056Z,4.10
2019-01-16T16:59:18.415Z,5.50
2019-01-16T17:01:50.915Z,6.37
2019-01-16T17:04:27.005Z,5.20
2019-01-16T17:06:59.814Z,4.23
2019-01-16T17:09:35.780Z,5.17
2019-01-16T17:12:08.356Z,6.17
2019-01-16T17:14:41.111Z,3.33
2019-01-16T17:17:23.201Z,5.23
2019-01-16T17:20:09.790Z,4.83
2019-01-16T17:22:42.336Z,9.73
2019-01-16T17:25:24.283Z,4.53
2019-01-16T17:28:00.383Z,5.30
2019-01-16T17:30:46.769Z,5.97
2019-01-16T17:33:31.703Z,5.53
2019-01-16T17:36:13.731Z,6.17
2019-01-16T17:38:52.918Z,9.20
2019-01-16T17:41:25.835Z,5.80
2019-01-16T17:43:55.925Z,6.20
2019-01-16T17:46:26.045Z,12.07
2019-01-16T17:48:56.681Z,6.40
2019-01-16T17:51:43.024Z,7.23
2019-01-16T17:54:29.102Z,5.97
2019-01-16T17:56:59.216Z,4.27
2019-01-16T17:59:35.460Z,7.90
2019-01-16T18:02:05.728Z,6.37
2019-01-16T18:04:35.920Z,4.80
2019-01-16T18:07:18.575Z,5.93
2019-01-16T18:10:04.835Z,5.27
2019-01-16T18:12:40.738Z,6.53
2019-01-16T18:15:14.825Z,5.67
2019-01-16T18:17:56.520Z,10.57
2019-01-16T18:20:32.084Z,6.17
2019-01-16T18:23:17.219Z,9.77
2019-01-16T18:25:56.174Z,8.27
2019-01-16T18:28:26.267Z,11.57
2019-01-16T18:31:12.329Z,5.47
2019-01-16T18:36:50.620Z,7.50
2019-01-16T18:39:29.813Z,5.87
2019-01-16T18:42:08.419Z,8.27
2019-01-16T18:44:53.495Z,4.83
2019-01-16T18:47:23.613Z,5.13
2019-01-16T18:49:53.709Z,6.27
2019-01-16T18:52:26.804Z,5.73
2019-01-16T18:55:02.726Z,9.23
2019-01-16T18:57:35.926Z,10.10
2019-01-16T19:00:11.987Z,6.37
2019-01-16T19:02:58.252Z,11.13
2019-01-16T19:05:37.114Z,8.30
2019-01-16T19:08:23.471Z,7.77
2019-01-16T19:10:53.574Z,11.87
2019-01-16T19:13:39.923Z,5.10
2019-01-16T19:16:15.885Z,7.43
2019-01-16T19:19:02.224Z,6.40
2019-01-16T19:21:35.313Z,15.03
2019-01-16T19:24:21.772Z,9.97
2019-01-16T19:26:54.805Z,8.70
2019-01-16T19:29:24.888Z,6.73
2019-01-16T19:32:04.193Z,12.83
2019-01-16T19:34:37.044Z,6.67
2019-01-16T19:37:10.881Z,4.77
2019-01-16T19:39:41.034Z,5.97
2019-01-16T19:42:19.774Z,9.87
2019-01-16T19:44:52.545Z,7.67
2019-01-16T19:47:28.769Z,11.33
2019-01-16T19:49:58.866Z,9.97
2019-01-16T19:52:29.016Z,10.17
2019-01-16T19:55:01.871Z,7.80
2019-01-16T19:57:47.350Z,8.53
2019-01-16T20:00:22.390Z,9.20
2019-01-16T20:03:10.832Z,9.00
2019-01-16T20:05:46.427Z,9.03
2019-01-16T20:08:23.413Z,6.30
2019-01-16T20:10:59.698Z,7.67
2019-01-16T20:13:29.814Z,13.07
2019-01-16T20:16:02.629Z,11.70
2019-01-16T20:18:44.366Z,5.53
2019-01-16T20:21:29.752Z,8.93
2019-01-16T20:24:05.826Z,12.40
2019-01-16T20:26:42.029Z,8.33
2019-01-16T20:29:30.737Z,9.37
2019-01-16T20:32:00.905Z,10.83
2019-01-16T20:34:42.680Z,11.33
2019-01-16T20:37:12.768Z,6.87
2019-01-16T20:39:45.594Z,6.27
2019-01-16T20:42:15.677Z,8.00
2019-01-16T20:44:45.797Z,8.90
2019-01-16T20:47:21.657Z,18.70
2019-01-16T20:49:57.474Z,11.87
2019-01-16T20:52:36.435Z,12.20
2019-01-16T20:55:13.198Z,13.67
2019-01-16T20:57:43.291Z,14.10
2019-01-16T21:00:32.959Z,7.27
2019-01-16T21:03:19.754Z,11.90
2019-01-16T21:05:58.845Z,8.30
2019-01-16T21:08:45.569Z,7.20
2019-01-16T21:11:33.772Z,9.03
2019-01-16T21:14:09.668Z,7.17
2019-01-16T21:16:55.838Z,10.93
2019-01-16T21:19:28.902Z,8.00
2019-01-16T21:22:02.072Z,14.13
2019-01-16T21:24:34.716Z,11.40
2019-01-16T21:27:07.429Z,8.43
2019-01-16T21:29:46.848Z,8.77
2019-01-16T21:32:19.393Z,8.53
2019-01-16T21:34:52.474Z,10.97
2019-01-16T21:37:38.704Z,8.53
2019-01-16T21:40:16.978Z,9.90
2019-01-16T21:42:47.225Z,11.10
2019-01-16T21:45:17.316Z,11.23
2019-01-16T21:47:53.457Z,11.57
2019-01-16T21:50:26.087Z,10.13
2019-01-16T21:53:01.807Z,12.00
2019-01-16T21:55:37.375Z,10.00
2019-01-16T21:58:25.320Z,13.20
2019-01-16T22:01:11.634Z,10.57
2019-01-16T22:03:41.745Z,14.10
2019-01-16T22:06:27.904Z,11.77
2019-01-16T22:09:03.684Z,12.50
2019-01-16T22:11:50.319Z,9.43
2019-01-16T22:14:20.434Z,10.08
2019-01-16T22:19:55.785Z,9.57
2019-01-16T22:22:25.879Z,8.57
2019-01-16T22:25:01.764Z,9.87
2019-01-16T22:27:31.925Z,9.60
2019-01-16T22:30:05.180Z,7.93
2019-01-16T22:32:38.304Z,10.67
2019-01-16T22:35:27.225Z,7.23
2019-01-16T22:38:13.676Z,10.50
2019-01-16T22:40:55.764Z,8.50
2019-01-16T22:43:37.716Z,17.10
2019-01-16T22:46:07.814Z,10.87
2019-01-16T22:48:43.843Z,9.33
2019-01-16T22:51:30.550Z,12.07
2019-01-16T22:54:03.489Z,11.60
2019-01-16T22:56:33.600Z,7.63
2019-01-16T22:59:06.156Z,10.33
2019-01-16T23:01:44.774Z,13.40
2019-01-16T23:04:17.362Z,13.20
2019-01-16T23:06:47.473Z,11.37
2019-01-16T23:09:20.337Z,11.17
2019-01-16T23:12:05.461Z,10.37
2019-01-16T23:14:35.589Z,11.27
2019-01-16T23:17:05.853Z,14.73
2019-01-16T23:19:48.337Z,6.70
2019-01-16T23:22:27.593Z,8.03
2019-01-16T23:25:06.618Z,9.03
2019-01-16T23:27:36.704Z,8.07
2019-01-16T23:30:15.722Z,11.03
2019-01-16T23:33:02.361Z,9.27
2019-01-16T23:35:47.711Z,8.97
2019-01-16T23:38:34.536Z,11.73
2019-01-16T23:41:07.840Z,9.65
2019-01-16T23:43:47.043Z,7.07
2019-01-16T23:46:29.274Z,13.07
2019-01-16T23:49:04.980Z,6.97
2019-01-16T23:51:53.399Z,9.27
2019-01-16T23:54:32.824Z,11.43
2019-01-16T23:57:08.879Z,8.80
2019-01-16T23:59:55.201Z,10.90
